sensor_id;sensor_type;location;lat;lon;timestamp;pressure;altitude;pressure_sealevel;temperature;humidity
71465;BME280;59274;49.874;9.154;2023-01-31T00:02:05;101217.44;;;3.96;94.00
71465;BME280;59274;49.874;9.154;2023-01-31T00:04:43;101212.94;;;3.91;94.52
71465;BME280;59274;49.874;9.154;2023-01-31T00:07:08;101219.31;;;3.96;94.14
71465;BME280;59274;49.874;9.154;2023-01-31T00:09:53;101223.28;;;3.98;93.97
71465;BME280;59274;49.874;9.154;2023-01-31T00:12:23;101223.28;;;3.98;93.73
71465;BME280;59274;49.874;9.154;2023-01-31T00:14:58;101221.41;;;3.99;93.63
71465;BME280;59274;49.874;9.154;2023-01-31T00:17:29;101223.91;;;3.95;94.19
71465;BME280;59274;49.874;9.154;2023-01-31T00:20:02;101237.50;;;3.99;93.90
71465;BME280;59274;49.874;9.154;2023-01-31T00:22:57;101236.03;;;3.92;94.33
71465;BME280;59274;49.874;9.154;2023-01-31T00:25:27;101236.66;;;3.89;94.46
71465;BME280;59274;49.874;9.154;2023-01-31T00:28:06;101231.97;;;3.95;93.83
71465;BME280;59274;49.874;9.154;2023-01-31T00:30:34;101229.88;;;3.92;93.72
71465;BME280;59274;49.874;9.154;2023-01-31T00:33:05;101230.38;;;3.94;93.69
71465;BME280;59274;49.874;9.154;2023-01-31T00:35:38;101219.53;;;3.85;94.48
71465;BME280;59274;49.874;9.154;2023-01-31T00:38:11;101231.88;;;3.86;94.60
71465;BME280;59274;49.874;9.154;2023-01-31T00:40:39;101226.34;;;3.83;94.56
71465;BME280;59274;49.874;9.154;2023-01-31T00:43:05;101218.88;;;3.80;94.51
71465;BME280;59274;49.874;9.154;2023-01-31T00:45:39;101225.22;;;3.84;94.24
71465;BME280;59274;49.874;9.154;2023-01-31T00:48:06;101220.47;;;3.81;94.29
71465;BME280;59274;49.874;9.154;2023-01-31T00:50:37;101223.53;;;3.88;93.39
71465;BME280;59274;49.874;9.154;2023-01-31T00:53:08;101222.72;;;3.87;93.62
71465;BME280;59274;49.874;9.154;2023-01-31T00:56:00;101238.84;;;3.87;93.90
71465;BME280;59274;49.874;9.154;2023-01-31T00:58:30;101231.28;;;3.89;93.81
71465;BME280;59274;49.874;9.154;2023-01-31T01:01:12;101238.06;;;3.87;93.78
71465;BME280;59274;49.874;9.154;2023-01-31T01:03:47;101242.84;;;3.90;93.77
71465;BME280;59274;49.874;9.154;2023-01-31T01:06:16;101230.19;;;3.90;94.32
71465;BME280;59274;49.874;9.154;2023-01-31T01:09:02;101234.28;;;3.88;94.54
71465;BME280;59274;49.874;9.154;2023-01-31T01:11:32;101234.28;;;3.88;94.30
71465;BME280;59274;49.874;9.154;2023-01-31T01:14:08;101219.53;;;3.85;94.60
71465;BME280;59274;49.874;9.154;2023-01-31T01:16:46;101225.84;;;3.81;94.91
71465;BME280;59274;49.874;9.154;2023-01-31T01:19:18;101241.66;;;3.82;95.06
71465;BME280;59274;49.874;9.154;2023-01-31T01:21:44;101247.63;;;3.79;95.45
71465;BME280;59274;49.874;9.154;2023-01-31T01:24:16;101244.94;;;3.79;96.21
71465;BME280;59274;49.874;9.154;2023-01-31T01:26:50;101234.00;;;3.76;96.34
71465;BME280;59274;49.874;9.154;2023-01-31T01:29:20;101252.50;;;3.64;98.88
71465;BME280;59274;49.874;9.154;2023-01-31T01:31:48;101256.41;;;3.58;99.04
71465;BME280;59274;49.874;9.154;2023-01-31T01:34:32;101260.88;;;3.48;99.70
71465;BME280;59274;49.874;9.154;2023-01-31T01:37:13;101249.66;;;3.33;100.00
71465;BME280;59274;49.874;9.154;2023-01-31T01:40:19;101256.13;;;3.32;100.00
71465;BME280;59274;49.874;9.154;2023-01-31T01:42:54;101254.25;;;3.32;100.00
71465;BME280;59274;49.874;9.154;2023-01-31T01:45:40;101255.22;;;3.36;100.00
71465;BME280;59274;49.874;9.154;2023-01-31T01:48:12;101259.38;;;3.42;100.00
71465;BME280;59274;49.874;9.154;2023-01-31T01:50:49;101265.78;;;3.46;100.00
71465;BME280;59274;49.874;9.154;2023-01-31T01:53:22;101267.84;;;3.49;100.00
71465;BME280;59274;49.874;9.154;2023-01-31T01:56:32;101278.41;;;3.46;100.00
71465;BME280;59274;49.874;9.154;2023-01-31T01:59:39;101277.31;;;3.47;100.00
71465;BME280;59274;49.874;9.154;2023-01-31T02:02:17;101276.50;;;3.46;100.00
71465;BME280;59274;49.874;9.154;2023-01-31T02:04:46;101280.97;;;3.51;100.00
71465;BME280;59274;49.874;9.154;2023-01-31T02:07:14;101270.84;;;3.48;99.80
71465;BME280;59274;49.874;9.154;2023-01-31T02:10:10;101265.47;;;3.48;99.60
71465;BME280;59274;49.874;9.154;2023-01-31T02:12:41;101274.50;;;3.52;99.36
71465;BME280;59274;49.874;9.154;2023-01-31T02:15:10;101265.47;;;3.48;99.13
71465;BME280;59274;49.874;9.154;2023-01-31T02:17:54;101277.09;;;3.43;99.20
71465;BME280;59274;49.874;9.154;2023-01-31T02:20:44;101276.50;;;3.46;98.93
71465;BME280;59274;49.874;9.154;2023-01-31T02:23:29;101281.78;;;3.51;98.32
71465;BME280;59274;49.874;9.154;2023-01-31T02:26:38;101282.56;;;3.52;97.74
71465;BME280;59274;49.874;9.154;2023-01-31T02:29:38;101286.63;;;3.49;97.63
71465;BME280;59274;49.874;9.154;2023-01-31T02:40:45;101281.97;;;3.41;97.83
71465;BME280;59274;49.874;9.154;2023-01-31T02:43:25;101271.94;;;3.33;98.12
71465;BME280;59274;49.874;9.154;2023-01-31T02:46:31;101277.09;;;3.43;97.96
71465;BME280;59274;49.874;9.154;2023-01-31T02:52:37;101268.34;;;3.51;96.60
71465;BME280;59274;49.874;9.154;2023-01-31T02:55:34;101278.56;;;3.49;97.14
71465;BME280;59274;49.874;9.154;2023-01-31T02:58:24;101275.19;;;3.58;96.31
71465;BME280;59274;49.874;9.154;2023-01-31T03:01:03;101284.34;;;3.57;96.51
71465;BME280;59274;49.874;9.154;2023-01-31T03:04:01;101283.06;;;3.54;96.44
71465;BME280;59274;49.874;9.154;2023-01-31T03:09:13;101286.56;;;3.54;97.46
71465;BME280;59274;49.874;9.154;2023-01-31T03:15:00;101284.66;;;3.55;96.50
71465;BME280;59274;49.874;9.154;2023-01-31T03:18:12;101276.09;;;3.53;96.25
71465;BME280;59274;49.874;9.154;2023-01-31T03:23:31;101284.66;;;3.55;94.94
71465;BME280;59274;49.874;9.154;2023-01-31T03:26:03;101285.06;;;3.62;94.40
71465;BME280;59274;49.874;9.154;2023-01-31T03:28:34;101292.63;;;3.60;94.59
71465;BME280;59274;49.874;9.154;2023-01-31T03:31:11;101290.44;;;3.62;94.16
71465;BME280;59274;49.874;9.154;2023-01-31T03:33:59;101303.88;;;3.62;94.02
71465;BME280;59274;49.874;9.154;2023-01-31T03:36:55;101304.63;;;3.63;93.58
71465;BME280;59274;49.874;9.154;2023-01-31T03:42:18;101316.50;;;3.62;93.40
71465;BME280;59274;49.874;9.154;2023-01-31T03:45:10;101316.09;;;3.54;93.72
71465;BME280;59274;49.874;9.154;2023-01-31T03:47:42;101319.47;;;3.60;93.12
71465;BME280;59274;49.874;9.154;2023-01-31T03:50:36;101332.09;;;3.60;93.02
71465;BME280;59274;49.874;9.154;2023-01-31T03:53:23;101320.06;;;3.57;93.37
71465;BME280;59274;49.874;9.154;2023-01-31T03:56:02;101320.56;;;3.59;92.83
71465;BME280;59274;49.874;9.154;2023-01-31T03:58:42;101311.81;;;3.53;92.84
71465;BME280;59274;49.874;9.154;2023-01-31T04:01:45;101311.13;;;3.48;92.73
71465;BME280;59274;49.874;9.154;2023-01-31T04:04:37;101318.97;;;3.44;93.27
71465;BME280;59274;49.874;9.154;2023-01-31T04:07:09;101326.84;;;3.41;93.54
71465;BME280;59274;49.874;9.154;2023-01-31T04:09:40;101314.19;;;3.41;93.20
71465;BME280;59274;49.874;9.154;2023-01-31T04:12:18;101313.81;;;3.48;92.77
71465;BME280;59274;49.874;9.154;2023-01-31T04:14:59;101324.56;;;3.48;93.27
71465;BME280;59274;49.874;9.154;2023-01-31T04:17:26;101318.66;;;3.46;93.25
71465;BME280;59274;49.874;9.154;2023-01-31T04:19:52;101317.59;;;3.47;93.17
71465;BME280;59274;49.874;9.154;2023-01-31T04:22:32;101310.91;;;3.44;92.94
71465;BME280;59274;49.874;9.154;2023-01-31T04:25:11;101316.16;;;3.49;93.05
71465;BME280;59274;49.874;9.154;2023-01-31T04:27:47;101312.69;;;3.49;92.51
71465;BME280;59274;49.874;9.154;2023-01-31T04:30:23;101316.50;;;3.48;91.90
71465;BME280;59274;49.874;9.154;2023-01-31T04:33:27;101308.34;;;3.53;91.51
71465;BME280;59274;49.874;9.154;2023-01-31T04:35:57;101313.59;;;3.44;91.91
71465;BME280;59274;49.874;9.154;2023-01-31T04:38:30;101314.69;;;3.43;92.23
71465;BME280;59274;49.874;9.154;2023-01-31T04:40:58;101311.19;;;3.43;92.09
71465;BME280;59274;49.874;9.154;2023-01-31T04:43:26;101307.66;;;3.47;91.74
71465;BME280;59274;49.874;9.154;2023-01-31T04:46:04;101320.56;;;3.45;91.72
71465;BME280;59274;49.874;9.154;2023-01-31T04:48:50;101311.31;;;3.38;91.98
71465;BME280;59274;49.874;9.154;2023-01-31T04:51:32;101311.09;;;3.34;92.02
71465;BME280;59274;49.874;9.154;2023-01-31T04:54:07;101310.69;;;3.27;92.86
71465;BME280;59274;49.874;9.154;2023-01-31T04:56:40;101300.34;;;3.34;91.26
71465;BME280;59274;49.874;9.154;2023-01-31T04:59:10;101308.22;;;3.31;91.36
71465;BME280;59274;49.874;9.154;2023-01-31T05:01:43;101305.81;;;3.29;91.17
71465;BME280;59274;49.874;9.154;2023-01-31T05:04:09;101294.38;;;3.24;91.46
71465;BME280;59274;49.874;9.154;2023-01-31T05:06:47;101292.59;;;3.19;91.43
71465;BME280;59274;49.874;9.154;2023-01-31T05:09:18;101299.94;;;3.13;91.44
71465;BME280;59274;49.874;9.154;2023-01-31T05:12:00;101291.47;;;3.06;91.72
71465;BME280;59274;49.874;9.154;2023-01-31T05:14:28;101287.69;;;3.07;91.20
71465;BME280;59274;49.874;9.154;2023-01-31T05:17:03;101282.94;;;3.04;91.44
71465;BME280;59274;49.874;9.154;2023-01-31T05:19:51;101280.84;;;3.01;91.50
71465;BME280;59274;49.874;9.154;2023-01-31T05:22:29;101276.84;;;2.99;91.50
71465;BME280;59274;49.874;9.154;2023-01-31T05:25:01;101271.06;;;2.92;91.60
71465;BME280;59274;49.874;9.154;2023-01-31T05:27:43;101279.63;;;2.94;91.28
71465;BME280;59274;49.874;9.154;2023-01-31T05:30:14;101279.13;;;2.92;91.41
71465;BME280;59274;49.874;9.154;2023-01-31T05:32:40;101259.84;;;2.90;91.45
71465;BME280;59274;49.874;9.154;2023-01-31T05:35:16;101271.69;;;2.89;91.71
71465;BME280;59274;49.874;9.154;2023-01-31T05:37:44;101259.63;;;2.86;91.67
71465;BME280;59274;49.874;9.154;2023-01-31T05:40:15;101270.19;;;2.96;91.14
71465;BME280;59274;49.874;9.154;2023-01-31T05:43:10;101269.00;;;3.02;90.95
71465;BME280;59274;49.874;9.154;2023-01-31T05:45:41;101281.25;;;3.08;90.51
71465;BME280;59274;49.874;9.154;2023-01-31T05:48:24;101274.97;;;3.13;90.11
71465;BME280;59274;49.874;9.154;2023-01-31T05:50:55;101273.31;;;3.17;89.96
71465;BME280;59274;49.874;9.154;2023-01-31T05:53:26;101279.75;;;3.16;90.24
71465;BME280;59274;49.874;9.154;2023-01-31T05:55:59;101280.34;;;3.13;90.42
71465;BME280;59274;49.874;9.154;2023-01-31T05:58:27;101278.69;;;3.17;89.95
71465;BME280;59274;49.874;9.154;2023-01-31T06:01:06;101275.88;;;3.22;89.75
71465;BME280;59274;49.874;9.154;2023-01-31T06:03:36;101271.13;;;3.19;90.01
71465;BME280;59274;49.874;9.154;2023-01-31T06:06:06;101252.94;;;3.16;89.85
71465;BME280;59274;49.874;9.154;2023-01-31T06:08:37;101256.81;;;3.10;90.32
71465;BME280;59274;49.874;9.154;2023-01-31T06:11:12;101261.16;;;3.06;90.28
71465;BME280;59274;49.874;9.154;2023-01-31T06:13:45;101260.47;;;3.00;90.65
71465;BME280;59274;49.874;9.154;2023-01-31T06:16:13;101255.88;;;3.01;90.48
71465;BME280;59274;49.874;9.154;2023-01-31T06:18:42;101253.88;;;2.93;90.91
71465;BME280;59274;49.874;9.154;2023-01-31T06:21:08;101254.19;;;2.91;90.80
71465;BME280;59274;49.874;9.154;2023-01-31T06:23:38;101252.59;;;2.90;90.79
71465;BME280;59274;49.874;9.154;2023-01-31T06:26:15;101256.47;;;2.84;91.37
71465;BME280;59274;49.874;9.154;2023-01-31T06:28:46;101259.34;;;2.88;91.00
71465;BME280;59274;49.874;9.154;2023-01-31T06:31:25;101258.44;;;2.92;90.75
71465;BME280;59274;49.874;9.154;2023-01-31T06:34:00;101261.94;;;2.93;91.10
71465;BME280;59274;49.874;9.154;2023-01-31T06:36:30;101259.19;;;2.98;90.92
71465;BME280;59274;49.874;9.154;2023-01-31T06:39:00;101260.75;;;2.99;90.57
71465;BME280;59274;49.874;9.154;2023-01-31T06:41:29;101266.22;;;2.94;90.87
71465;BME280;59274;49.874;9.154;2023-01-31T06:44:00;101260.66;;;2.90;91.08
71465;BME280;59274;49.874;9.154;2023-01-31T06:46:30;101268.38;;;2.92;90.91
71465;BME280;59274;49.874;9.154;2023-01-31T06:49:03;101271.28;;;2.95;90.66
71465;BME280;59274;49.874;9.154;2023-01-31T06:51:43;101264.31;;;2.94;90.54
71465;BME280;59274;49.874;9.154;2023-01-31T06:54:24;101265.50;;;2.88;90.94
71465;BME280;59274;49.874;9.154;2023-01-31T06:57:12;101273.28;;;2.90;91.29
71465;BME280;59274;49.874;9.154;2023-01-31T06:59:47;101273.75;;;2.92;90.88
71465;BME280;59274;49.874;9.154;2023-01-31T07:02:25;101278.03;;;2.93;90.93
71465;BME280;59274;49.874;9.154;2023-01-31T07:04:56;101276.94;;;2.94;91.01
71465;BME280;59274;49.874;9.154;2023-01-31T07:07:21;101277.44;;;2.96;91.14
71465;BME280;59274;49.874;9.154;2023-01-31T07:09:49;101289.06;;;2.91;91.54
71465;BME280;59274;49.874;9.154;2023-01-31T07:12:37;101287.97;;;2.92;91.63
71465;BME280;59274;49.874;9.154;2023-01-31T07:15:05;101290.44;;;2.89;91.67
71465;BME280;59274;49.874;9.154;2023-01-31T07:17:37;101304.78;;;2.98;91.18
71465;BME280;59274;49.874;9.154;2023-01-31T07:20:10;101305.59;;;2.98;91.46
71465;BME280;59274;49.874;9.154;2023-01-31T07:22:54;101307.16;;;2.99;91.27
71465;BME280;59274;49.874;9.154;2023-01-31T07:25:28;101309.25;;;3.02;91.18
71465;BME280;59274;49.874;9.154;2023-01-31T07:27:59;101309.56;;;3.01;91.53
71465;BME280;59274;49.874;9.154;2023-01-31T07:30:37;101305.06;;;2.96;91.79
71465;BME280;59274;49.874;9.154;2023-01-31T07:33:14;101326.53;;;2.96;91.60
71465;BME280;59274;49.874;9.154;2023-01-31T07:35:49;101311.41;;;2.87;92.27
71465;BME280;59274;49.874;9.154;2023-01-31T07:38:16;101322.34;;;2.90;92.33
71465;BME280;59274;49.874;9.154;2023-01-31T07:41:14;101327.72;;;2.90;92.39
71465;BME280;59274;49.874;9.154;2023-01-31T07:43:45;101319.28;;;2.97;92.07
71465;BME280;59274;49.874;9.154;2023-01-31T07:46:33;101327.53;;;3.00;92.34
71465;BME280;59274;49.874;9.154;2023-01-31T07:49:02;101327.25;;;3.02;92.00
71465;BME280;59274;49.874;9.154;2023-01-31T07:51:32;101327.94;;;3.07;91.36
71465;BME280;59274;49.874;9.154;2023-01-31T07:54:06;101329.03;;;3.06;91.84
71465;BME280;59274;49.874;9.154;2023-01-31T07:56:41;101325.56;;;3.06;91.68
71465;BME280;59274;49.874;9.154;2023-01-31T07:59:11;101334.00;;;3.13;91.54
71465;BME280;59274;49.874;9.154;2023-01-31T08:01:59;101333.16;;;3.18;91.08
71465;BME280;59274;49.874;9.154;2023-01-31T08:04:46;101343.09;;;3.17;90.97
71465;BME280;59274;49.874;9.154;2023-01-31T08:07:20;101336.34;;;3.20;90.91
71465;BME280;59274;49.874;9.154;2023-01-31T08:09:51;101338.53;;;3.31;90.95
71465;BME280;59274;49.874;9.154;2023-01-31T08:12:27;101343.31;;;3.34;90.75
71465;BME280;59274;49.874;9.154;2023-01-31T08:14:53;101328.22;;;3.38;89.90
71465;BME280;59274;49.874;9.154;2023-01-31T08:17:20;101328.72;;;3.54;89.45
71465;BME280;59274;49.874;9.154;2023-01-31T08:20:09;101326.34;;;3.52;89.50
71465;BME280;59274;49.874;9.154;2023-01-31T08:22:37;101331.69;;;3.52;89.20
71465;BME280;59274;49.874;9.154;2023-01-31T08:25:12;101336.47;;;3.55;89.36
71465;BME280;59274;49.874;9.154;2023-01-31T08:27:45;101332.28;;;3.63;89.37
71465;BME280;59274;49.874;9.154;2023-01-31T08:30:18;101337.25;;;3.70;88.60
71465;BME280;59274;49.874;9.154;2023-01-31T08:32:46;101328.63;;;3.59;88.53
71465;BME280;59274;49.874;9.154;2023-01-31T08:35:24;101337.47;;;3.60;88.61
71465;BME280;59274;49.874;9.154;2023-01-31T08:38:07;101339.06;;;3.61;88.88
71465;BME280;59274;49.874;9.154;2023-01-31T08:41:10;101346.22;;;3.65;88.64
71465;BME280;59274;49.874;9.154;2023-01-31T08:43:38;101341.16;;;3.64;88.96
71465;BME280;59274;49.874;9.154;2023-01-31T08:46:13;101337.88;;;3.67;87.93
71465;BME280;59274;49.874;9.154;2023-01-31T08:48:48;101331.41;;;3.68;87.71
71465;BME280;59274;49.874;9.154;2023-01-31T08:51:15;101330.59;;;3.81;87.62
71465;BME280;59274;49.874;9.154;2023-01-31T08:53:46;101329.41;;;3.73;88.07
71465;BME280;59274;49.874;9.154;2023-01-31T08:56:33;101335.78;;;3.64;88.42
71465;BME280;59274;49.874;9.154;2023-01-31T08:59:04;101335.88;;;3.59;88.64
71465;BME280;59274;49.874;9.154;2023-01-31T09:01:51;101339.16;;;3.55;88.70
71465;BME280;59274;49.874;9.154;2023-01-31T09:07:16;101334.97;;;3.49;89.42
71465;BME280;59274;49.874;9.154;2023-01-31T09:09:48;101349.69;;;3.52;89.13
71465;BME280;59274;49.874;9.154;2023-01-31T09:12:16;101345.72;;;3.49;89.12
71465;BME280;59274;49.874;9.154;2023-01-31T09:14:58;101346.72;;;3.53;89.71
71465;BME280;59274;49.874;9.154;2023-01-31T09:17:31;101355.97;;;3.47;89.60
71465;BME280;59274;49.874;9.154;2023-01-31T09:20:14;101349.59;;;3.43;90.22
71465;BME280;59274;49.874;9.154;2023-01-31T09:23:00;101342.84;;;3.60;90.02
71465;BME280;59274;49.874;9.154;2023-01-31T09:25:38;101344.81;;;3.40;89.79
71465;BME280;59274;49.874;9.154;2023-01-31T09:28:11;101351.16;;;3.31;90.42
71465;BME280;59274;49.874;9.154;2023-01-31T09:30:47;101363.78;;;3.30;90.92
71465;BME280;59274;49.874;9.154;2023-01-31T09:33:25;101351.56;;;3.38;90.26
71465;BME280;59274;49.874;9.154;2023-01-31T09:36:13;101354.09;;;3.62;89.90
71465;BME280;59274;49.874;9.154;2023-01-31T09:38:58;101337.97;;;3.75;89.16
71465;BME280;59274;49.874;9.154;2023-01-31T09:41:38;101337.19;;;3.75;88.72
71465;BME280;59274;49.874;9.154;2023-01-31T09:44:17;101332.59;;;3.75;88.29
71465;BME280;59274;49.874;9.154;2023-01-31T09:46:56;101333.19;;;3.86;89.68
71465;BME280;59274;49.874;9.154;2023-01-31T09:49:28;101318.66;;;3.87;88.41
71465;BME280;59274;49.874;9.154;2023-01-31T09:52:00;101330.59;;;3.81;88.42
71465;BME280;59274;49.874;9.154;2023-01-31T09:54:52;101329.13;;;3.75;88.34
71465;BME280;59274;49.874;9.154;2023-01-31T10:00:26;101355.28;;;3.83;88.34
71465;BME280;59274;49.874;9.154;2023-01-31T10:09:36;101362.16;;;4.52;86.02
71465;BME280;59274;49.874;9.154;2023-01-31T10:17:59;101333.50;;;4.34;86.36
71465;BME280;59274;49.874;9.154;2023-01-31T10:20:36;101339.91;;;4.24;87.14
71465;BME280;59274;49.874;9.154;2023-01-31T10:23:15;101340.88;;;4.28;87.50
71465;BME280;59274;49.874;9.154;2023-01-31T10:26:01;101329.88;;;4.16;87.60
71465;BME280;59274;49.874;9.154;2023-01-31T10:28:52;101345.00;;;4.12;88.39
71465;BME280;59274;49.874;9.154;2023-01-31T10:32:00;101337.28;;;3.97;88.91
71465;BME280;59274;49.874;9.154;2023-01-31T10:34:49;101329.88;;;4.16;89.28
71465;BME280;59274;49.874;9.154;2023-01-31T10:39:54;101323.47;;;4.26;88.13
71465;BME280;59274;49.874;9.154;2023-01-31T10:42:50;101316.25;;;4.35;88.26
71465;BME280;59274;49.874;9.154;2023-01-31T10:45:26;101310.50;;;4.28;88.30
71465;BME280;59274;49.874;9.154;2023-01-31T10:48:23;101307.41;;;4.34;88.21
71465;BME280;59274;49.874;9.154;2023-01-31T10:59:52;101291.94;;;4.18;89.89
71465;BME280;59274;49.874;9.154;2023-01-31T11:02:28;101294.03;;;4.07;89.92
71465;BME280;59274;49.874;9.154;2023-01-31T11:05:00;101275.63;;;4.01;90.08
71465;BME280;59274;49.874;9.154;2023-01-31T11:07:31;101265.31;;;3.94;90.95
71465;BME280;59274;49.874;9.154;2023-01-31T11:13:03;101246.00;;;3.92;91.63
71465;BME280;59274;49.874;9.154;2023-01-31T11:15:50;101246.69;;;3.98;91.26
71465;BME280;59274;49.874;9.154;2023-01-31T11:21:05;101226.31;;;4.19;90.15
71465;BME280;59274;49.874;9.154;2023-01-31T11:23:36;101225.28;;;4.28;89.73
71465;BME280;59274;49.874;9.154;2023-01-31T11:26:04;101216.59;;;4.31;89.34
71465;BME280;59274;49.874;9.154;2023-01-31T11:28:37;101214.59;;;4.37;89.64
71465;BME280;59274;49.874;9.154;2023-01-31T11:31:15;101214.50;;;4.51;90.00
71465;BME280;59274;49.874;9.154;2023-01-31T11:33:58;101208.13;;;4.69;88.92
71465;BME280;59274;49.874;9.154;2023-01-31T11:36:24;101211.00;;;4.72;89.23
71465;BME280;59274;49.874;9.154;2023-01-31T11:38:54;101207.50;;;4.72;88.46
71465;BME280;59274;49.874;9.154;2023-01-31T11:47:01;101205.94;;;4.49;88.13
71465;BME280;59274;49.874;9.154;2023-01-31T11:49:48;101192.41;;;4.54;88.49
71465;BME280;59274;49.874;9.154;2023-01-31T11:52:27;101192.75;;;4.61;88.44
71465;BME280;59274;49.874;9.154;2023-01-31T11:54:55;101185.94;;;4.63;88.77
71465;BME280;59274;49.874;9.154;2023-01-31T11:57:39;101187.38;;;4.61;87.83
71465;BME280;59274;49.874;9.154;2023-01-31T12:00:24;101177.34;;;4.53;88.40
71465;BME280;59274;49.874;9.154;2023-01-31T12:05:40;101153.00;;;4.58;88.18
71465;BME280;59274;49.874;9.154;2023-01-31T12:08:27;101143.47;;;4.52;88.63
71465;BME280;59274;49.874;9.154;2023-01-31T12:10:57;101158.81;;;4.51;88.30
71465;BME280;59274;49.874;9.154;2023-01-31T12:13:25;101142.91;;;4.63;88.27
71465;BME280;59274;49.874;9.154;2023-01-31T12:16:03;101150.31;;;4.58;88.22
71465;BME280;59274;49.874;9.154;2023-01-31T12:38:54;101140.00;;;4.82;87.62
71465;BME280;59274;49.874;9.154;2023-01-31T12:41:48;101127.94;;;4.80;87.77
71465;BME280;59274;49.874;9.154;2023-01-31T12:44:34;101101.53;;;4.82;88.80
71465;BME280;59274;49.874;9.154;2023-01-31T13:04:35;101058.00;;;4.88;88.04
71465;BME280;59274;49.874;9.154;2023-01-31T13:07:27;101060.06;;;4.83;87.28
71465;BME280;59274;49.874;9.154;2023-01-31T13:10:04;101045.66;;;4.96;86.96
71465;BME280;59274;49.874;9.154;2023-01-31T13:12:36;101044.56;;;5.05;86.50
71465;BME280;59274;49.874;9.154;2023-01-31T13:15:20;101030.63;;;5.12;85.80
71465;BME280;59274;49.874;9.154;2023-01-31T13:17:58;101022.25;;;5.22;86.25
71465;BME280;59274;49.874;9.154;2023-01-31T13:20:38;101035.09;;;5.17;85.50
71465;BME280;59274;49.874;9.154;2023-01-31T13:23:35;101017.19;;;5.03;86.81
71465;BME280;59274;49.874;9.154;2023-01-31T13:26:51;101013.69;;;5.03;86.52
71465;BME280;59274;49.874;9.154;2023-01-31T13:29:32;101015.28;;;5.04;86.74
71465;BME280;59274;49.874;9.154;2023-01-31T13:32:13;101003.38;;;5.05;86.92
71465;BME280;59274;49.874;9.154;2023-01-31T13:34:56;100994.06;;;5.02;86.46
71465;BME280;59274;49.874;9.154;2023-01-31T13:37:29;100995.00;;;5.06;87.55
71465;BME280;59274;49.874;9.154;2023-01-31T13:40:23;101003.41;;;4.96;87.26
71465;BME280;59274;49.874;9.154;2023-01-31T13:42:53;100998.63;;;4.93;87.90
71465;BME280;59274;49.874;9.154;2023-01-31T13:45:45;100986.13;;;4.89;88.30
71465;BME280;59274;49.874;9.154;2023-01-31T13:48:53;100984.88;;;4.95;88.39
71465;BME280;59274;49.874;9.154;2023-01-31T13:51:35;100987.25;;;4.96;87.71
71465;BME280;59274;49.874;9.154;2023-01-31T13:54:22;100990.09;;;5.00;87.78
71465;BME280;59274;49.874;9.154;2023-01-31T13:56:54;100997.22;;;5.22;86.84
71465;BME280;59274;49.874;9.154;2023-01-31T13:59:41;101002.13;;;5.28;86.81
71465;BME280;59274;49.874;9.154;2023-01-31T14:02:26;101007.69;;;5.32;87.46
71465;BME280;59274;49.874;9.154;2023-01-31T14:17:00;101003.56;;;5.00;88.65
71465;BME280;59274;49.874;9.154;2023-01-31T14:22:25;101005.44;;;4.99;89.11
71465;BME280;59274;49.874;9.154;2023-01-31T14:32:34;101013.63;;;4.60;97.34
71465;BME280;59274;49.874;9.154;2023-01-31T14:51:09;101004.31;;;4.18;99.27
71465;BME280;59274;49.874;9.154;2023-01-31T14:54:01;101007.41;;;4.03;100.00
71465;BME280;59274;49.874;9.154;2023-01-31T15:01:57;101006.59;;;4.02;100.00
71465;BME280;59274;49.874;9.154;2023-01-31T15:04:24;101018.41;;;3.92;100.00
71465;BME280;59274;49.874;9.154;2023-01-31T15:06:52;101021.88;;;3.93;100.00
71465;BME280;59274;49.874;9.154;2023-01-31T15:16:30;101020.47;;;3.96;100.00
71465;BME280;59274;49.874;9.154;2023-01-31T15:19:13;101013.81;;;3.93;100.00
71465;BME280;59274;49.874;9.154;2023-01-31T15:21:47;101017.94;;;3.90;100.00
71465;BME280;59274;49.874;9.154;2023-01-31T15:24:32;101018.28;;;3.98;100.00
71465;BME280;59274;49.874;9.154;2023-01-31T15:33:31;101012.72;;;3.94;100.00
71465;BME280;59274;49.874;9.154;2023-01-31T15:36:16;101016.34;;;3.89;100.00
71465;BME280;59274;49.874;9.154;2023-01-31T15:38:49;101012.66;;;3.85;100.00
71465;BME280;59274;49.874;9.154;2023-01-31T15:41:34;101012.50;;;3.82;100.00
71465;BME280;59274;49.874;9.154;2023-01-31T15:57:21;101029.84;;;3.76;100.00
71465;BME280;59274;49.874;9.154;2023-01-31T15:59:47;101022.41;;;3.73;100.00
71465;BME280;59274;49.874;9.154;2023-01-31T16:09:06;101004.88;;;3.75;100.00
71465;BME280;59274;49.874;9.154;2023-01-31T16:11:33;101013.53;;;3.72;100.00
71465;BME280;59274;49.874;9.154;2023-01-31T16:14:04;101017.03;;;3.73;100.00
71465;BME280;59274;49.874;9.154;2023-01-31T16:16:32;101015.44;;;3.72;100.00
71465;BME280;59274;49.874;9.154;2023-01-31T16:18:59;101009.81;;;3.82;100.00
71465;BME280;59274;49.874;9.154;2023-01-31T16:21:30;101018.34;;;3.84;100.00
71465;BME280;59274;49.874;9.154;2023-01-31T16:24:08;101002.72;;;3.86;100.00
71465;BME280;59274;49.874;9.154;2023-01-31T16:26:39;101002.22;;;3.84;100.00
71465;BME280;59274;49.874;9.154;2023-01-31T16:29:08;100995.16;;;3.88;100.00
71465;BME280;59274;49.874;9.154;2023-01-31T16:31:43;100988.69;;;3.89;100.00
71465;BME280;59274;49.874;9.154;2023-01-31T16:34:22;100990.13;;;3.95;100.00
71465;BME280;59274;49.874;9.154;2023-01-31T16:41:50;101003.41;;;4.00;100.00
71465;BME280;59274;49.874;9.154;2023-01-31T16:44:18;101000.44;;;4.02;100.00
71465;BME280;59274;49.874;9.154;2023-01-31T16:46:46;100999.94;;;4.00;100.00
71465;BME280;59274;49.874;9.154;2023-01-31T16:49:27;101008.34;;;4.07;100.00
71465;BME280;59274;49.874;9.154;2023-01-31T16:52:13;101005.34;;;4.08;100.00
71465;BME280;59274;49.874;9.154;2023-01-31T16:54:51;101010.44;;;4.10;100.00
71465;BME280;59274;49.874;9.154;2023-01-31T16:57:35;101011.38;;;4.14;100.00
71465;BME280;59274;49.874;9.154;2023-01-31T17:00:03;101011.38;;;4.14;100.00